Home   Weather   Israel   Kfar Saba   Past weeks
Flag for Israel

Past Weather in Kfar Saba, Israel — Yesterday and Last 2 Weeks

Currently: 73 °F. Sunny. (Weather station: Ben Gurion International Airport, Israel). See more current weather

Past Weather in Kfar Saba — Graph

°F

Kfar Saba Temperature Yesterday

Maximum temperature yesterday: 90 °F (at 11:50 am)
Minimum temperature yesterday: 72 °F (at 4:20 am)
Average temperature yesterday: 81 °F

High & Low Weather Summary for the Past Weeks

 TemperatureHumidityPressure
High91 °F (Sep 24, 1:20 pm)79% (Sep 13, 11:50 pm)29.98 "Hg (Sep 13, 11:50 pm)
Low68 °F (Sep 26, 5:50 am)24% (Sep 27, 1:20 pm)29.71 "Hg (Sep 13, 6:20 am)
Average80 °F59%29.85 "Hg
* Reported Sep 13 6:20 am — Sep 28 6:50 am, Kfar Saba. Weather by CustomWeather, © 2022

Note: Actual official high and low records may vary slightly from our data, if they occured in-between our weather recording intervals... More about our weather records

Kfar Saba Weather History for the Previous 24 Hours

Scroll right to see more
 ConditionsComfort  
Time TempWeatherWind HumidityBarometerVisibility
6:50 am
Wed, Sep 28
68 °FSunny.3 mph69%29.92 "Hg10 mi
6:20 am68 °FClear.2 mph69%29.92 "Hg10 mi
5:20 am70 °FClear.1 mph64%29.92 "Hg10 mi
4:20 am72 °FClear.3 mph61%29.92 "Hg10 mi
3:50 am72 °FClear.2 mph61%29.92 "Hg10 mi
2:20 am75 °FClear.2 mph61%29.92 "Hg10 mi
1:50 am75 °FClear.3 mph65%29.92 "Hg10 mi
1:20 am75 °FClear.2 mph61%29.92 "Hg10 mi
12:50 am77 °FClear.2 mph61%29.92 "Hg10 mi
12:20 am77 °FClear.2 mph61%29.92 "Hg10 mi
11:20 pm
Tue, Sep 27
79 °FClear.7 mph58%29.92 "Hg10 mi
10:50 pm79 °FClear.7 mph58%29.92 "Hg10 mi
10:20 pm79 °FClear.8 mph54%29.92 "Hg10 mi
9:50 pm79 °FClear.7 mph54%29.92 "Hg10 mi
9:20 pm81 °FClear.8 mph51%29.92 "Hg10 mi
8:50 pm81 °FClear.6 mph48%29.92 "Hg10 mi
8:20 pm82 °FClear.10 mph42%29.89 "Hg10 mi
7:50 pm82 °FClear.7 mph42%29.89 "Hg10 mi
7:20 pm82 °FClear.9 mph42%29.89 "Hg10 mi
6:50 pm84 °FClear.8 mph40%29.86 "Hg10 mi
5:20 pm88 °FSunny.10 mph33%29.86 "Hg10 mi
4:20 pm90 °FSunny.13 mph33%29.86 "Hg10 mi
3:50 pm90 °FSunny.14 mph33%29.86 "Hg10 mi
3:20 pm90 °FPassing clouds.13 mph31%29.89 "HgN/A
2:50 pm90 °FSunny.13 mph36%29.89 "Hg10 mi
2:20 pm90 °FSunny.14 mph27%29.89 "Hg10 mi
1:50 pm90 °FSunny.13 mph24%29.89 "Hg10 mi
1:20 pm90 °FPassing clouds.10 mph24%29.89 "HgN/A
12:50 pm90 °FPassing clouds.10 mph27%29.92 "HgN/A
12:20 pm90 °FPassing clouds.7 mph38%29.92 "HgN/A
11:50 am90 °FPassing clouds.7 mph36%29.92 "HgN/A
11:20 am88 °FPassing clouds.5 mph40%29.92 "HgN/A
10:20 am84 °FPassing clouds.6 mph48%29.95 "HgN/A
9:50 am82 °FPassing clouds.7 mph58%29.95 "HgN/A
9:20 am81 °FSunny.3 mph66%29.95 "Hg10 mi
8:50 am81 °FSunny.1 mph45%29.92 "Hg10 mi
8:20 am75 °FSunny.1 mph41%29.92 "Hg10 mi
Weather by CustomWeather, © 2022

See weather overview